sensor_id;sensor_type;location;lat;lon;timestamp;P1;durP1;ratioP1;P2;durP2;ratioP2
26686;SDS011;14298;50.900;4.648;2022-09-09T00:01:56;10.00;;;4.63;;
26686;SDS011;14298;50.900;4.648;2022-09-09T00:04:32;6.07;;;3.97;;
26686;SDS011;14298;50.900;4.648;2022-09-09T00:07:19;6.80;;;4.00;;
26686;SDS011;14298;50.900;4.648;2022-09-09T00:09:54;9.93;;;4.30;;
26686;SDS011;14298;50.900;4.648;2022-09-09T00:15:20;11.73;;;4.43;;
26686;SDS011;14298;50.900;4.648;2022-09-09T00:20:49;10.60;;;4.57;;
26686;SDS011;14298;50.900;4.648;2022-09-09T00:23:23;9.67;;;4.70;;
26686;SDS011;14298;50.900;4.648;2022-09-09T00:25:54;10.80;;;4.70;;
26686;SDS011;14298;50.900;4.648;2022-09-09T00:28:26;9.20;;;3.70;;
26686;SDS011;14298;50.900;4.648;2022-09-09T00:31:04;12.97;;;3.83;;
26686;SDS011;14298;50.900;4.648;2022-09-09T00:33:42;12.97;;;4.23;;
26686;SDS011;14298;50.900;4.648;2022-09-09T00:36:17;9.97;;;3.80;;
26686;SDS011;14298;50.900;4.648;2022-09-09T00:38:44;11.07;;;3.80;;
26686;SDS011;14298;50.900;4.648;2022-09-09T00:41:22;7.80;;;3.60;;
26686;SDS011;14298;50.900;4.648;2022-09-09T00:47:08;7.73;;;3.77;;
26686;SDS011;14298;50.900;4.648;2022-09-09T00:52:49;9.87;;;3.60;;
26686;SDS011;14298;50.900;4.648;2022-09-09T00:55:39;10.87;;;4.37;;
26686;SDS011;14298;50.900;4.648;2022-09-09T00:58:14;15.57;;;4.33;;
26686;SDS011;14298;50.900;4.648;2022-09-09T01:00:44;12.83;;;4.00;;
26686;SDS011;14298;50.900;4.648;2022-09-09T01:03:36;9.90;;;4.07;;
26686;SDS011;14298;50.900;4.648;2022-09-09T01:06:16;15.37;;;4.97;;
26686;SDS011;14298;50.900;4.648;2022-09-09T01:14:14;9.67;;;3.53;;
26686;SDS011;14298;50.900;4.648;2022-09-09T01:16:43;12.20;;;4.30;;
26686;SDS011;14298;50.900;4.648;2022-09-09T01:19:16;14.07;;;4.83;;
26686;SDS011;14298;50.900;4.648;2022-09-09T01:21:55;13.60;;;4.40;;
26686;SDS011;14298;50.900;4.648;2022-09-09T01:24:27;10.23;;;4.37;;
26686;SDS011;14298;50.900;4.648;2022-09-09T01:26:57;8.43;;;3.97;;
26686;SDS011;14298;50.900;4.648;2022-09-09T01:29:28;12.77;;;5.03;;
26686;SDS011;14298;50.900;4.648;2022-09-09T01:31:57;10.27;;;4.07;;
26686;SDS011;14298;50.900;4.648;2022-09-09T01:34:36;13.00;;;4.77;;
26686;SDS011;14298;50.900;4.648;2022-09-09T01:37:06;12.07;;;4.60;;
26686;SDS011;14298;50.900;4.648;2022-09-09T01:39:36;5.97;;;3.50;;
26686;SDS011;14298;50.900;4.648;2022-09-09T01:42:08;15.53;;;4.83;;
26686;SDS011;14298;50.900;4.648;2022-09-09T01:44:38;10.27;;;4.13;;
26686;SDS011;14298;50.900;4.648;2022-09-09T01:47:07;8.60;;;4.17;;
26686;SDS011;14298;50.900;4.648;2022-09-09T01:49:36;12.83;;;4.73;;
26686;SDS011;14298;50.900;4.648;2022-09-09T01:52:04;10.73;;;4.63;;
26686;SDS011;14298;50.900;4.648;2022-09-09T01:54:33;11.07;;;3.83;;
26686;SDS011;14298;50.900;4.648;2022-09-09T01:57:23;9.13;;;4.17;;
26686;SDS011;14298;50.900;4.648;2022-09-09T02:00:00;9.67;;;4.13;;
26686;SDS011;14298;50.900;4.648;2022-09-09T02:08:07;12.40;;;3.90;;
26686;SDS011;14298;50.900;4.648;2022-09-09T02:10:42;13.67;;;4.23;;
26686;SDS011;14298;50.900;4.648;2022-09-09T02:13:24;8.53;;;3.60;;
26686;SDS011;14298;50.900;4.648;2022-09-09T02:15:56;10.07;;;3.87;;
26686;SDS011;14298;50.900;4.648;2022-09-09T02:18:26;13.27;;;4.93;;
26686;SDS011;14298;50.900;4.648;2022-09-09T02:20:56;10.93;;;4.33;;
26686;SDS011;14298;50.900;4.648;2022-09-09T02:23:26;9.83;;;4.23;;
26686;SDS011;14298;50.900;4.648;2022-09-09T02:25:56;8.57;;;3.93;;
26686;SDS011;14298;50.900;4.648;2022-09-09T02:28:26;10.10;;;3.83;;
26686;SDS011;14298;50.900;4.648;2022-09-09T02:30:57;10.13;;;4.00;;
26686;SDS011;14298;50.900;4.648;2022-09-09T02:33:28;7.20;;;3.77;;
26686;SDS011;14298;50.900;4.648;2022-09-09T02:35:58;10.43;;;4.10;;
26686;SDS011;14298;50.900;4.648;2022-09-09T02:38:32;10.30;;;3.80;;
26686;SDS011;14298;50.900;4.648;2022-09-09T02:41:01;10.60;;;3.77;;
26686;SDS011;14298;50.900;4.648;2022-09-09T02:43:35;16.10;;;4.13;;
26686;SDS011;14298;50.900;4.648;2022-09-09T02:49:17;10.53;;;3.70;;
26686;SDS011;14298;50.900;4.648;2022-09-09T02:51:51;12.67;;;3.60;;
26686;SDS011;14298;50.900;4.648;2022-09-09T02:54:33;11.80;;;3.53;;
26686;SDS011;14298;50.900;4.648;2022-09-09T02:57:10;10.27;;;3.97;;
26686;SDS011;14298;50.900;4.648;2022-09-09T02:59:40;9.30;;;4.03;;
26686;SDS011;14298;50.900;4.648;2022-09-09T03:02:10;10.90;;;3.60;;
26686;SDS011;14298;50.900;4.648;2022-09-09T03:04:40;9.80;;;3.70;;
26686;SDS011;14298;50.900;4.648;2022-09-09T03:07:10;13.43;;;3.93;;
26686;SDS011;14298;50.900;4.648;2022-09-09T03:09:39;12.10;;;4.00;;
26686;SDS011;14298;50.900;4.648;2022-09-09T03:12:07;13.03;;;4.50;;
26686;SDS011;14298;50.900;4.648;2022-09-09T03:14:37;12.73;;;4.23;;
26686;SDS011;14298;50.900;4.648;2022-09-09T03:17:06;13.00;;;3.67;;
26686;SDS011;14298;50.900;4.648;2022-09-09T03:19:35;13.10;;;3.57;;
26686;SDS011;14298;50.900;4.648;2022-09-09T03:22:04;13.97;;;3.73;;
26686;SDS011;14298;50.900;4.648;2022-09-09T03:24:32;10.73;;;3.77;;
26686;SDS011;14298;50.900;4.648;2022-09-09T03:27:00;9.30;;;3.40;;
26686;SDS011;14298;50.900;4.648;2022-09-09T03:29:29;11.53;;;3.00;;
26686;SDS011;14298;50.900;4.648;2022-09-09T03:31:58;10.37;;;3.10;;
26686;SDS011;14298;50.900;4.648;2022-09-09T03:34:26;11.77;;;3.37;;
26686;SDS011;14298;50.900;4.648;2022-09-09T03:36:55;12.67;;;3.30;;
26686;SDS011;14298;50.900;4.648;2022-09-09T03:39:23;10.90;;;2.83;;
26686;SDS011;14298;50.900;4.648;2022-09-09T03:41:51;11.60;;;2.73;;
26686;SDS011;14298;50.900;4.648;2022-09-09T03:44:20;9.60;;;3.20;;
26686;SDS011;14298;50.900;4.648;2022-09-09T03:46:48;12.20;;;3.47;;
26686;SDS011;14298;50.900;4.648;2022-09-09T03:49:16;8.63;;;3.20;;
26686;SDS011;14298;50.900;4.648;2022-09-09T03:51:46;11.90;;;2.90;;
26686;SDS011;14298;50.900;4.648;2022-09-09T03:54:15;11.33;;;3.03;;
26686;SDS011;14298;50.900;4.648;2022-09-09T03:56:43;11.13;;;2.97;;
26686;SDS011;14298;50.900;4.648;2022-09-09T03:59:12;10.80;;;3.43;;
26686;SDS011;14298;50.900;4.648;2022-09-09T04:01:40;10.10;;;3.00;;
26686;SDS011;14298;50.900;4.648;2022-09-09T04:04:09;15.80;;;3.70;;
26686;SDS011;14298;50.900;4.648;2022-09-09T04:06:38;16.33;;;3.93;;
26686;SDS011;14298;50.900;4.648;2022-09-09T04:09:06;10.43;;;3.20;;
26686;SDS011;14298;50.900;4.648;2022-09-09T04:11:35;10.23;;;3.20;;
26686;SDS011;14298;50.900;4.648;2022-09-09T04:14:03;14.93;;;3.87;;
26686;SDS011;14298;50.900;4.648;2022-09-09T04:16:33;8.00;;;3.10;;
26686;SDS011;14298;50.900;4.648;2022-09-09T04:19:03;13.87;;;3.43;;
26686;SDS011;14298;50.900;4.648;2022-09-09T04:21:34;13.03;;;3.37;;
26686;SDS011;14298;50.900;4.648;2022-09-09T04:24:02;12.23;;;3.40;;
26686;SDS011;14298;50.900;4.648;2022-09-09T04:26:31;14.47;;;3.47;;
26686;SDS011;14298;50.900;4.648;2022-09-09T04:28:59;10.20;;;3.03;;
26686;SDS011;14298;50.900;4.648;2022-09-09T04:31:27;11.93;;;3.00;;
26686;SDS011;14298;50.900;4.648;2022-09-09T04:33:56;9.27;;;3.20;;
26686;SDS011;14298;50.900;4.648;2022-09-09T04:36:24;12.57;;;3.30;;
26686;SDS011;14298;50.900;4.648;2022-09-09T04:38:52;8.43;;;3.00;;
26686;SDS011;14298;50.900;4.648;2022-09-09T04:41:21;12.83;;;3.30;;
26686;SDS011;14298;50.900;4.648;2022-09-09T04:43:50;10.27;;;3.77;;
26686;SDS011;14298;50.900;4.648;2022-09-09T04:46:20;9.73;;;3.03;;
26686;SDS011;14298;50.900;4.648;2022-09-09T04:48:50;16.03;;;3.40;;
26686;SDS011;14298;50.900;4.648;2022-09-09T04:51:19;11.27;;;3.00;;
26686;SDS011;14298;50.900;4.648;2022-09-09T04:53:47;10.90;;;3.53;;
26686;SDS011;14298;50.900;4.648;2022-09-09T04:56:17;10.73;;;3.30;;
26686;SDS011;14298;50.900;4.648;2022-09-09T04:58:46;13.40;;;3.00;;
26686;SDS011;14298;50.900;4.648;2022-09-09T05:01:15;12.83;;;3.17;;
26686;SDS011;14298;50.900;4.648;2022-09-09T05:03:45;14.73;;;3.50;;
26686;SDS011;14298;50.900;4.648;2022-09-09T05:06:15;12.93;;;4.00;;
26686;SDS011;14298;50.900;4.648;2022-09-09T05:08:45;9.07;;;3.47;;
26686;SDS011;14298;50.900;4.648;2022-09-09T05:11:15;14.43;;;3.87;;
26686;SDS011;14298;50.900;4.648;2022-09-09T05:13:44;12.57;;;3.20;;
26686;SDS011;14298;50.900;4.648;2022-09-09T05:16:13;10.10;;;3.27;;
26686;SDS011;14298;50.900;4.648;2022-09-09T05:18:42;13.20;;;3.97;;
26686;SDS011;14298;50.900;4.648;2022-09-09T05:21:13;15.13;;;3.70;;
26686;SDS011;14298;50.900;4.648;2022-09-09T05:23:44;13.47;;;3.70;;
26686;SDS011;14298;50.900;4.648;2022-09-09T05:26:14;12.37;;;3.80;;
26686;SDS011;14298;50.900;4.648;2022-09-09T05:28:44;12.10;;;3.20;;
26686;SDS011;14298;50.900;4.648;2022-09-09T05:31:14;12.53;;;3.10;;
26686;SDS011;14298;50.900;4.648;2022-09-09T05:33:44;12.83;;;3.80;;
26686;SDS011;14298;50.900;4.648;2022-09-09T05:36:16;12.87;;;3.70;;
26686;SDS011;14298;50.900;4.648;2022-09-09T05:38:47;11.17;;;3.40;;
26686;SDS011;14298;50.900;4.648;2022-09-09T05:41:16;16.33;;;3.80;;
26686;SDS011;14298;50.900;4.648;2022-09-09T05:43:46;17.13;;;4.00;;
26686;SDS011;14298;50.900;4.648;2022-09-09T05:46:16;10.43;;;3.70;;
26686;SDS011;14298;50.900;4.648;2022-09-09T05:48:46;14.53;;;3.50;;
26686;SDS011;14298;50.900;4.648;2022-09-09T05:51:18;11.40;;;3.37;;
26686;SDS011;14298;50.900;4.648;2022-09-09T05:53:48;12.47;;;3.60;;
26686;SDS011;14298;50.900;4.648;2022-09-09T05:56:18;16.37;;;3.40;;
26686;SDS011;14298;50.900;4.648;2022-09-09T05:58:49;11.63;;;3.00;;
26686;SDS011;14298;50.900;4.648;2022-09-09T06:01:26;10.53;;;3.20;;
26686;SDS011;14298;50.900;4.648;2022-09-09T06:03:56;14.33;;;4.27;;
26686;SDS011;14298;50.900;4.648;2022-09-09T06:06:26;10.27;;;2.97;;
26686;SDS011;14298;50.900;4.648;2022-09-09T06:08:56;13.03;;;3.20;;
26686;SDS011;14298;50.900;4.648;2022-09-09T06:11:26;13.70;;;3.23;;
26686;SDS011;14298;50.900;4.648;2022-09-09T06:13:58;11.13;;;2.70;;
26686;SDS011;14298;50.900;4.648;2022-09-09T06:16:27;12.40;;;2.70;;
26686;SDS011;14298;50.900;4.648;2022-09-09T06:18:59;8.53;;;2.87;;
26686;SDS011;14298;50.900;4.648;2022-09-09T06:21:30;13.93;;;2.97;;
26686;SDS011;14298;50.900;4.648;2022-09-09T06:24:00;10.87;;;2.90;;
26686;SDS011;14298;50.900;4.648;2022-09-09T06:26:30;11.63;;;2.83;;
26686;SDS011;14298;50.900;4.648;2022-09-09T06:28:59;8.70;;;2.80;;
26686;SDS011;14298;50.900;4.648;2022-09-09T06:31:30;12.00;;;2.77;;
26686;SDS011;14298;50.900;4.648;2022-09-09T06:34:00;9.43;;;2.93;;
26686;SDS011;14298;50.900;4.648;2022-09-09T06:36:31;10.47;;;2.83;;
26686;SDS011;14298;50.900;4.648;2022-09-09T06:39:01;13.10;;;2.40;;
26686;SDS011;14298;50.900;4.648;2022-09-09T06:41:31;8.73;;;2.50;;
26686;SDS011;14298;50.900;4.648;2022-09-09T06:43:59;7.87;;;2.43;;
26686;SDS011;14298;50.900;4.648;2022-09-09T06:46:28;10.67;;;2.67;;
26686;SDS011;14298;50.900;4.648;2022-09-09T06:48:59;11.57;;;2.50;;
26686;SDS011;14298;50.900;4.648;2022-09-09T06:51:29;10.50;;;2.80;;
26686;SDS011;14298;50.900;4.648;2022-09-09T06:54:00;11.33;;;2.77;;
26686;SDS011;14298;50.900;4.648;2022-09-09T06:56:30;11.33;;;2.60;;
26686;SDS011;14298;50.900;4.648;2022-09-09T06:59:10;8.47;;;2.20;;
26686;SDS011;14298;50.900;4.648;2022-09-09T07:01:39;9.57;;;2.40;;
26686;SDS011;14298;50.900;4.648;2022-09-09T07:04:11;12.77;;;2.37;;
26686;SDS011;14298;50.900;4.648;2022-09-09T07:06:41;9.90;;;2.17;;
26686;SDS011;14298;50.900;4.648;2022-09-09T07:09:12;14.53;;;2.57;;
26686;SDS011;14298;50.900;4.648;2022-09-09T07:11:43;10.23;;;2.27;;
26686;SDS011;14298;50.900;4.648;2022-09-09T07:14:13;7.47;;;2.03;;
26686;SDS011;14298;50.900;4.648;2022-09-09T07:16:42;8.53;;;2.57;;
26686;SDS011;14298;50.900;4.648;2022-09-09T07:19:12;9.63;;;2.20;;
26686;SDS011;14298;50.900;4.648;2022-09-09T07:21:41;8.00;;;1.90;;
26686;SDS011;14298;50.900;4.648;2022-09-09T07:24:10;11.33;;;2.13;;
26686;SDS011;14298;50.900;4.648;2022-09-09T07:26:38;11.80;;;2.20;;
26686;SDS011;14298;50.900;4.648;2022-09-09T07:29:07;8.63;;;1.90;;
26686;SDS011;14298;50.900;4.648;2022-09-09T07:31:36;6.47;;;1.70;;
26686;SDS011;14298;50.900;4.648;2022-09-09T07:34:06;9.57;;;2.37;;
26686;SDS011;14298;50.900;4.648;2022-09-09T07:36:35;10.87;;;2.53;;
26686;SDS011;14298;50.900;4.648;2022-09-09T07:39:07;7.03;;;1.70;;
26686;SDS011;14298;50.900;4.648;2022-09-09T07:41:38;7.97;;;2.67;;
26686;SDS011;14298;50.900;4.648;2022-09-09T07:44:09;10.17;;;2.10;;
26686;SDS011;14298;50.900;4.648;2022-09-09T07:46:39;8.07;;;2.27;;
26686;SDS011;14298;50.900;4.648;2022-09-09T07:49:09;7.30;;;1.70;;
26686;SDS011;14298;50.900;4.648;2022-09-09T07:51:38;9.57;;;2.33;;
26686;SDS011;14298;50.900;4.648;2022-09-09T07:54:10;11.27;;;2.53;;
26686;SDS011;14298;50.900;4.648;2022-09-09T07:56:40;9.73;;;2.30;;
26686;SDS011;14298;50.900;4.648;2022-09-09T07:59:09;9.23;;;2.83;;
26686;SDS011;14298;50.900;4.648;2022-09-09T08:01:46;12.70;;;2.80;;
26686;SDS011;14298;50.900;4.648;2022-09-09T08:04:14;9.53;;;2.73;;
26686;SDS011;14298;50.900;4.648;2022-09-09T08:06:48;13.63;;;3.03;;
26686;SDS011;14298;50.900;4.648;2022-09-09T08:09:21;11.33;;;3.00;;
26686;SDS011;14298;50.900;4.648;2022-09-09T08:11:51;9.07;;;2.50;;
26686;SDS011;14298;50.900;4.648;2022-09-09T08:14:20;14.20;;;2.83;;
26686;SDS011;14298;50.900;4.648;2022-09-09T08:16:49;9.13;;;2.30;;
26686;SDS011;14298;50.900;4.648;2022-09-09T08:19:20;10.10;;;2.50;;
26686;SDS011;14298;50.900;4.648;2022-09-09T08:21:48;10.17;;;2.53;;
26686;SDS011;14298;50.900;4.648;2022-09-09T08:24:17;10.63;;;2.00;;
26686;SDS011;14298;50.900;4.648;2022-09-09T08:26:47;6.73;;;2.10;;
26686;SDS011;14298;50.900;4.648;2022-09-09T08:29:16;5.57;;;1.70;;
26686;SDS011;14298;50.900;4.648;2022-09-09T08:31:45;6.67;;;1.97;;
26686;SDS011;14298;50.900;4.648;2022-09-09T08:34:16;9.10;;;2.00;;
26686;SDS011;14298;50.900;4.648;2022-09-09T08:36:47;9.67;;;2.20;;
26686;SDS011;14298;50.900;4.648;2022-09-09T08:39:17;10.23;;;2.30;;
26686;SDS011;14298;50.900;4.648;2022-09-09T08:44:54;6.93;;;1.70;;
26686;SDS011;14298;50.900;4.648;2022-09-09T08:55:26;6.47;;;1.80;;
26686;SDS011;14298;50.900;4.648;2022-09-09T08:58:02;8.80;;;2.17;;
26686;SDS011;14298;50.900;4.648;2022-09-09T09:00:36;10.37;;;2.13;;
26686;SDS011;14298;50.900;4.648;2022-09-09T09:05:44;9.67;;;1.77;;
26686;SDS011;14298;50.900;4.648;2022-09-09T09:08:35;8.63;;;2.30;;
26686;SDS011;14298;50.900;4.648;2022-09-09T09:11:13;10.80;;;2.37;;
26686;SDS011;14298;50.900;4.648;2022-09-09T09:13:45;8.00;;;2.07;;
26686;SDS011;14298;50.900;4.648;2022-09-09T09:18:57;7.23;;;2.00;;
26686;SDS011;14298;50.900;4.648;2022-09-09T09:24:01;10.37;;;2.30;;
26686;SDS011;14298;50.900;4.648;2022-09-09T09:26:32;9.60;;;2.57;;
26686;SDS011;14298;50.900;4.648;2022-09-09T09:29:17;8.43;;;2.23;;
26686;SDS011;14298;50.900;4.648;2022-09-09T09:31:52;7.97;;;2.33;;
26686;SDS011;14298;50.900;4.648;2022-09-09T09:34:17;6.50;;;2.20;;
26686;SDS011;14298;50.900;4.648;2022-09-09T09:36:53;6.53;;;2.00;;
26686;SDS011;14298;50.900;4.648;2022-09-09T09:41:57;8.43;;;2.20;;
26686;SDS011;14298;50.900;4.648;2022-09-09T09:44:28;12.77;;;2.40;;
26686;SDS011;14298;50.900;4.648;2022-09-09T09:47:07;9.47;;;2.10;;
26686;SDS011;14298;50.900;4.648;2022-09-09T09:49:37;8.87;;;2.40;;
26686;SDS011;14298;50.900;4.648;2022-09-09T09:52:06;9.33;;;2.67;;
26686;SDS011;14298;50.900;4.648;2022-09-09T09:54:38;11.17;;;2.70;;
26686;SDS011;14298;50.900;4.648;2022-09-09T09:57:12;8.40;;;2.40;;
26686;SDS011;14298;50.900;4.648;2022-09-09T09:59:43;10.13;;;2.90;;
26686;SDS011;14298;50.900;4.648;2022-09-09T10:05:08;10.03;;;3.30;;
26686;SDS011;14298;50.900;4.648;2022-09-09T10:16:32;10.23;;;2.70;;
26686;SDS011;14298;50.900;4.648;2022-09-09T10:19:16;10.77;;;2.57;;
26686;SDS011;14298;50.900;4.648;2022-09-09T10:21:57;8.13;;;2.40;;
26686;SDS011;14298;50.900;4.648;2022-09-09T10:30:06;9.30;;;2.90;;
26686;SDS011;14298;50.900;4.648;2022-09-09T10:32:46;6.50;;;1.80;;
26686;SDS011;14298;50.900;4.648;2022-09-09T10:35:41;4.47;;;1.93;;
26686;SDS011;14298;50.900;4.648;2022-09-09T10:41:07;6.13;;;1.90;;
26686;SDS011;14298;50.900;4.648;2022-09-09T10:49:29;6.57;;;2.50;;
26686;SDS011;14298;50.900;4.648;2022-09-09T10:52:15;7.03;;;2.40;;
26686;SDS011;14298;50.900;4.648;2022-09-09T10:57:40;8.60;;;1.90;;
26686;SDS011;14298;50.900;4.648;2022-09-09T11:00:13;6.53;;;2.40;;
26686;SDS011;14298;50.900;4.648;2022-09-09T11:02:41;5.67;;;2.03;;
26686;SDS011;14298;50.900;4.648;2022-09-09T11:05:14;6.13;;;1.90;;
26686;SDS011;14298;50.900;4.648;2022-09-09T11:07:49;6.90;;;2.40;;
26686;SDS011;14298;50.900;4.648;2022-09-09T11:15:43;12.63;;;2.57;;
26686;SDS011;14298;50.900;4.648;2022-09-09T11:18:20;6.77;;;2.07;;
26686;SDS011;14298;50.900;4.648;2022-09-09T11:20:58;9.20;;;2.30;;
26686;SDS011;14298;50.900;4.648;2022-09-09T11:23:40;7.97;;;1.80;;
26686;SDS011;14298;50.900;4.648;2022-09-09T11:26:12;5.53;;;1.90;;
26686;SDS011;14298;50.900;4.648;2022-09-09T11:29:05;8.83;;;2.17;;
26686;SDS011;14298;50.900;4.648;2022-09-09T11:39:53;4.70;;;1.47;;
26686;SDS011;14298;50.900;4.648;2022-09-09T11:42:31;7.60;;;1.60;;
26686;SDS011;14298;50.900;4.648;2022-09-09T11:45:08;6.17;;;1.77;;
26686;SDS011;14298;50.900;4.648;2022-09-09T11:47:39;4.17;;;1.73;;
26686;SDS011;14298;50.900;4.648;2022-09-09T11:52:48;7.57;;;1.67;;
26686;SDS011;14298;50.900;4.648;2022-09-09T11:55:25;2.83;;;1.10;;
26686;SDS011;14298;50.900;4.648;2022-09-09T11:58:06;8.13;;;1.70;;
26686;SDS011;14298;50.900;4.648;2022-09-09T12:00:36;4.50;;;1.30;;
26686;SDS011;14298;50.900;4.648;2022-09-09T12:06:19;6.00;;;1.43;;
26686;SDS011;14298;50.900;4.648;2022-09-09T12:08:50;4.10;;;1.47;;
26686;SDS011;14298;50.900;4.648;2022-09-09T12:11:25;5.33;;;1.60;;
26686;SDS011;14298;50.900;4.648;2022-09-09T12:13:57;7.37;;;1.50;;
26686;SDS011;14298;50.900;4.648;2022-09-09T12:16:31;3.37;;;1.37;;
26686;SDS011;14298;50.900;4.648;2022-09-09T12:19:05;6.77;;;1.50;;
26686;SDS011;14298;50.900;4.648;2022-09-09T12:21:39;4.57;;;1.27;;
26686;SDS011;14298;50.900;4.648;2022-09-09T12:27:22;8.37;;;1.50;;
26686;SDS011;14298;50.900;4.648;2022-09-09T12:29:57;3.50;;;1.23;;
26686;SDS011;14298;50.900;4.648;2022-09-09T12:32:26;9.80;;;1.50;;
26686;SDS011;14298;50.900;4.648;2022-09-09T12:34:57;4.00;;;1.30;;
26686;SDS011;14298;50.900;4.648;2022-09-09T12:37:41;4.03;;;1.40;;
26686;SDS011;14298;50.900;4.648;2022-09-09T12:40:19;3.73;;;1.13;;
26686;SDS011;14298;50.900;4.648;2022-09-09T12:42:49;8.33;;;1.83;;
26686;SDS011;14298;50.900;4.648;2022-09-09T12:45:24;7.10;;;1.37;;
26686;SDS011;14298;50.900;4.648;2022-09-09T12:47:54;4.77;;;1.60;;
26686;SDS011;14298;50.900;4.648;2022-09-09T12:50:43;3.17;;;1.20;;
26686;SDS011;14298;50.900;4.648;2022-09-09T12:53:15;6.50;;;1.50;;
26686;SDS011;14298;50.900;4.648;2022-09-09T12:55:48;5.30;;;1.33;;
26686;SDS011;14298;50.900;4.648;2022-09-09T12:58:18;5.30;;;1.20;;
26686;SDS011;14298;50.900;4.648;2022-09-09T13:00:51;4.57;;;1.10;;
26686;SDS011;14298;50.900;4.648;2022-09-09T13:03:23;3.30;;;1.00;;
26686;SDS011;14298;50.900;4.648;2022-09-09T13:05:57;4.60;;;1.10;;
26686;SDS011;14298;50.900;4.648;2022-09-09T13:08:27;5.30;;;1.20;;
26686;SDS011;14298;50.900;4.648;2022-09-09T13:10:57;3.83;;;1.10;;
26686;SDS011;14298;50.900;4.648;2022-09-09T13:13:33;5.13;;;1.27;;
26686;SDS011;14298;50.900;4.648;2022-09-09T13:16:01;3.30;;;1.27;;
26686;SDS011;14298;50.900;4.648;2022-09-09T13:18:34;2.70;;;1.00;;
26686;SDS011;14298;50.900;4.648;2022-09-09T13:21:03;4.53;;;1.00;;
26686;SDS011;14298;50.900;4.648;2022-09-09T13:23:37;1.70;;;0.70;;
26686;SDS011;14298;50.900;4.648;2022-09-09T13:28:34;4.27;;;1.17;;
26686;SDS011;14298;50.900;4.648;2022-09-09T13:31:03;1.87;;;0.80;;
26686;SDS011;14298;50.900;4.648;2022-09-09T13:33:35;4.07;;;0.90;;
26686;SDS011;14298;50.900;4.648;2022-09-09T13:36:05;4.67;;;1.00;;
26686;SDS011;14298;50.900;4.648;2022-09-09T13:38:38;3.17;;;1.00;;
26686;SDS011;14298;50.900;4.648;2022-09-09T13:41:09;3.97;;;1.13;;
26686;SDS011;14298;50.900;4.648;2022-09-09T13:43:47;2.50;;;0.90;;
26686;SDS011;14298;50.900;4.648;2022-09-09T13:51:39;1.47;;;0.80;;
26686;SDS011;14298;50.900;4.648;2022-09-09T13:54:14;6.10;;;1.10;;
26686;SDS011;14298;50.900;4.648;2022-09-09T13:56:44;4.23;;;1.40;;
26686;SDS011;14298;50.900;4.648;2022-09-09T13:59:19;3.67;;;1.10;;
26686;SDS011;14298;50.900;4.648;2022-09-09T14:01:45;3.43;;;0.93;;
26686;SDS011;14298;50.900;4.648;2022-09-09T14:04:13;2.10;;;0.90;;
26686;SDS011;14298;50.900;4.648;2022-09-09T14:06:43;4.53;;;1.00;;
26686;SDS011;14298;50.900;4.648;2022-09-09T14:09:12;4.00;;;1.03;;
26686;SDS011;14298;50.900;4.648;2022-09-09T14:11:41;3.57;;;1.00;;
26686;SDS011;14298;50.900;4.648;2022-09-09T14:14:12;2.83;;;0.70;;
26686;SDS011;14298;50.900;4.648;2022-09-09T14:16:40;3.97;;;0.70;;
26686;SDS011;14298;50.900;4.648;2022-09-09T14:19:09;1.77;;;0.87;;
26686;SDS011;14298;50.900;4.648;2022-09-09T14:21:37;3.73;;;0.87;;
26686;SDS011;14298;50.900;4.648;2022-09-09T14:24:06;2.40;;;0.87;;
26686;SDS011;14298;50.900;4.648;2022-09-09T14:26:34;2.73;;;0.90;;
26686;SDS011;14298;50.900;4.648;2022-09-09T14:29:03;2.70;;;0.90;;
26686;SDS011;14298;50.900;4.648;2022-09-09T14:31:31;4.57;;;1.10;;
26686;SDS011;14298;50.900;4.648;2022-09-09T14:34:00;3.63;;;1.10;;
26686;SDS011;14298;50.900;4.648;2022-09-09T14:36:28;2.07;;;0.80;;
26686;SDS011;14298;50.900;4.648;2022-09-09T14:38:56;4.63;;;1.00;;
26686;SDS011;14298;50.900;4.648;2022-09-09T14:41:25;3.17;;;1.00;;
26686;SDS011;14298;50.900;4.648;2022-09-09T14:43:53;3.47;;;1.03;;
26686;SDS011;14298;50.900;4.648;2022-09-09T14:46:22;4.00;;;1.00;;
26686;SDS011;14298;50.900;4.648;2022-09-09T14:48:50;4.13;;;1.17;;
26686;SDS011;14298;50.900;4.648;2022-09-09T14:51:23;2.77;;;1.23;;
26686;SDS011;14298;50.900;4.648;2022-09-09T14:53:56;2.70;;;0.90;;
26686;SDS011;14298;50.900;4.648;2022-09-09T14:56:26;2.63;;;1.07;;
26686;SDS011;14298;50.900;4.648;2022-09-09T14:58:57;3.93;;;1.10;;
26686;SDS011;14298;50.900;4.648;2022-09-09T15:01:29;4.10;;;0.93;;
26686;SDS011;14298;50.900;4.648;2022-09-09T15:04:00;4.10;;;1.30;;
26686;SDS011;14298;50.900;4.648;2022-09-09T15:06:30;3.47;;;1.10;;
26686;SDS011;14298;50.900;4.648;2022-09-09T15:09:00;2.87;;;1.10;;
26686;SDS011;14298;50.900;4.648;2022-09-09T15:11:30;4.27;;;1.57;;
26686;SDS011;14298;50.900;4.648;2022-09-09T15:14:02;2.20;;;1.10;;
26686;SDS011;14298;50.900;4.648;2022-09-09T15:16:34;4.77;;;1.00;;
26686;SDS011;14298;50.900;4.648;2022-09-09T15:19:04;3.07;;;1.00;;
26686;SDS011;14298;50.900;4.648;2022-09-09T15:21:33;3.40;;;1.10;;
26686;SDS011;14298;50.900;4.648;2022-09-09T15:24:03;2.67;;;0.90;;
26686;SDS011;14298;50.900;4.648;2022-09-09T15:26:34;3.07;;;1.00;;
26686;SDS011;14298;50.900;4.648;2022-09-09T15:29:05;4.23;;;1.00;;
26686;SDS011;14298;50.900;4.648;2022-09-09T15:31:34;2.53;;;0.93;;
26686;SDS011;14298;50.900;4.648;2022-09-09T15:34:04;3.00;;;1.10;;
26686;SDS011;14298;50.900;4.648;2022-09-09T15:36:38;6.83;;;1.30;;
26686;SDS011;14298;50.900;4.648;2022-09-09T15:39:09;2.33;;;1.10;;
26686;SDS011;14298;50.900;4.648;2022-09-09T15:41:39;3.23;;;1.10;;
26686;SDS011;14298;50.900;4.648;2022-09-09T15:44:08;4.57;;;1.07;;
26686;SDS011;14298;50.900;4.648;2022-09-09T15:46:43;2.77;;;0.93;;
26686;SDS011;14298;50.900;4.648;2022-09-09T15:49:14;3.73;;;1.27;;
26686;SDS011;14298;50.900;4.648;2022-09-09T15:51:46;4.10;;;1.10;;
26686;SDS011;14298;50.900;4.648;2022-09-09T15:54:17;2.50;;;1.07;;
26686;SDS011;14298;50.900;4.648;2022-09-09T15:56:47;5.23;;;1.17;;
26686;SDS011;14298;50.900;4.648;2022-09-09T15:59:25;2.63;;;1.10;;
26686;SDS011;14298;50.900;4.648;2022-09-09T16:01:57;2.57;;;1.20;;
26686;SDS011;14298;50.900;4.648;2022-09-09T16:04:26;3.33;;;1.30;;
26686;SDS011;14298;50.900;4.648;2022-09-09T16:06:58;4.03;;;1.40;;
26686;SDS011;14298;50.900;4.648;2022-09-09T16:09:27;5.23;;;1.23;;
26686;SDS011;14298;50.900;4.648;2022-09-09T16:11:57;4.13;;;1.30;;
26686;SDS011;14298;50.900;4.648;2022-09-09T16:14:28;3.80;;;1.10;;
26686;SDS011;14298;50.900;4.648;2022-09-09T16:16:58;2.73;;;0.90;;
26686;SDS011;14298;50.900;4.648;2022-09-09T16:19:27;3.23;;;1.13;;
26686;SDS011;14298;50.900;4.648;2022-09-09T16:21:55;3.93;;;1.20;;
26686;SDS011;14298;50.900;4.648;2022-09-09T16:24:24;3.67;;;1.13;;
26686;SDS011;14298;50.900;4.648;2022-09-09T16:26:54;3.73;;;1.30;;
26686;SDS011;14298;50.900;4.648;2022-09-09T16:29:22;3.57;;;1.10;;
26686;SDS011;14298;50.900;4.648;2022-09-09T16:31:53;3.13;;;1.17;;
26686;SDS011;14298;50.900;4.648;2022-09-09T16:34:22;4.43;;;1.40;;
26686;SDS011;14298;50.900;4.648;2022-09-09T16:36:51;3.60;;;1.30;;
26686;SDS011;14298;50.900;4.648;2022-09-09T16:39:19;3.23;;;1.50;;
26686;SDS011;14298;50.900;4.648;2022-09-09T16:41:48;5.63;;;1.30;;
26686;SDS011;14298;50.900;4.648;2022-09-09T16:44:18;5.73;;;1.40;;
26686;SDS011;14298;50.900;4.648;2022-09-09T16:46:47;4.07;;;1.30;;
26686;SDS011;14298;50.900;4.648;2022-09-09T16:49:18;3.63;;;1.50;;
26686;SDS011;14298;50.900;4.648;2022-09-09T16:51:47;6.97;;;1.77;;
26686;SDS011;14298;50.900;4.648;2022-09-09T16:54:18;4.93;;;1.43;;
26686;SDS011;14298;50.900;4.648;2022-09-09T16:56:47;4.97;;;1.37;;